Time;durP1;ratioP1;P1;durP2;ratioP2;P2;SDS_P1;SDS_P2;PMS_P1;PMS_P2;Temp;Humidity;BMP_temperature;BMP_pressure;BME280_temperature;BME280_humidity;BME280_pressure;Samples;Min_cycle;Max_cycle;Signal;HPM_P1;HPM_P2
2021/12/23 00:01:40;;;;;;;42.63;19.17;;;;;;;-0.30;68.69;101418.59;5040191;28;20059;-66
2021/12/23 00:04:09;;;;;;;37.80;18.13;;;;;;;-0.11;67.79;101421.25;5069653;28;20048;-66
2021/12/23 00:06:36;;;;;;;44.42;18.48;;;;;;;-0.18;68.50;101425.03;5055958;28;20082;-66
2021/12/23 00:09:04;;;;;;;41.65;18.45;;;;;;;-0.21;68.28;101426.00;5072988;28;20058;-67
2021/12/23 00:11:32;;;;;;;42.22;18.65;;;;;;;-0.23;68.66;101412.19;5074568;28;20051;-67
2021/12/23 00:14:05;;;;;;;42.55;19.45;;;;;;;-0.09;68.12;101410.72;5074820;28;20049;-66
2021/12/23 00:17:05;;;;;;;47.88;19.10;;;;;;;-0.08;67.61;101412.41;5057611;28;20045;-67
2021/12/23 00:19:35;;;;;;;38.00;18.00;;;;;;;-0.16;68.03;101437.97;5074394;28;20465;-67
2021/12/23 00:24:50;;;;;;;45.58;18.85;;;;;;;-0.15;68.07;101435.31;5074680;28;20123;-67
2021/12/23 00:27:17;;;;;;;45.17;19.17;;;;;;;-0.07;68.18;101422.78;5073263;28;20132;-67
2021/12/23 00:29:44;;;;;;;42.95;19.80;;;;;;;-0.14;68.86;101403.13;5056893;28;20131;-67
2021/12/23 00:32:11;;;;;;;42.92;19.88;;;;;;;-0.06;68.45;101390.56;5071705;28;20040;-68
2021/12/23 00:34:38;;;;;;;49.53;20.33;;;;;;;-0.05;68.28;101394.03;5056275;28;20041;-67
2021/12/23 00:37:09;;;;;;;41.65;19.30;;;;;;;0.01;67.75;101390.28;5074406;28;20040;-67
2021/12/23 00:39:36;;;;;;;40.70;19.02;;;;;;;-0.10;68.12;101380.34;5074499;28;20493;-67
2021/12/23 00:42:06;;;;;;;46.08;19.98;;;;;;;0.04;67.66;101371.88;5066904;28;20044;-67
2021/12/23 00:44:35;;;;;;;41.50;20.00;;;;;;;0.08;67.34;101363.84;5082220;28;20405;-67
2021/12/23 00:47:03;;;;;;;42.20;20.58;;;;;;;0.05;67.30;101360.53;5072908;28;20033;-67
2021/12/23 00:49:29;;;;;;;41.55;19.45;;;;;;;0.21;67.33;101351.06;5074376;28;20040;-67
2021/12/23 00:51:57;;;;;;;38.33;19.33;;;;;;;0.14;66.68;101354.88;5072711;28;20523;-67
2021/12/23 00:54:24;;;;;;;42.45;18.10;;;;;;;-0.01;67.63;101353.84;5072475;28;20561;-67
2021/12/23 00:56:51;;;;;;;42.47;18.80;;;;;;;-0.06;67.52;101346.22;5072927;28;20044;-69
2021/12/23 00:59:18;;;;;;;47.28;19.67;;;;;;;-0.04;67.70;101343.53;5055596;28;20044;-69
2021/12/23 01:01:47;;;;;;;40.53;19.08;;;;;;;0.02;67.73;101335.44;5072558;28;20067;-69
2021/12/23 01:04:14;;;;;;;41.03;17.75;;;;;;;-0.09;68.02;101312.47;5071532;28;20113;-69
2021/12/23 01:06:41;;;;;;;47.38;20.52;;;;;;;0.00;67.79;101324.25;5055836;28;20041;-67
2021/12/23 01:09:08;;;;;;;41.10;18.52;;;;;;;-0.12;68.33;101324.81;5073514;28;20051;-67
2021/12/23 01:11:36;;;;;;;43.50;20.08;;;;;;;-0.14;68.21;101327.47;5073562;28;20386;-67
2021/12/23 01:14:25;;;;;;;40.78;20.02;;;;;;;-0.04;67.98;101315.72;5072362;28;20044;-66
2021/12/23 01:17:22;;;;;;;43.08;18.77;;;;;;;-0.08;68.41;101334.16;5073315;28;20044;-67
2021/12/23 01:19:40;;;;;;;41.60;18.95;;;;;;;-0.13;68.75;101334.38;5069340;28;20114;-67
2021/12/23 01:22:08;;;;;;;47.22;19.25;;;;;;;-0.33;68.74;101321.41;5071203;28;20456;-67
2021/12/23 01:24:35;;;;;;;43.42;19.02;;;;;;;-0.29;68.64;101326.44;5064545;28;20041;-69
2021/12/23 01:27:02;;;;;;;44.08;19.08;;;;;;;-0.32;69.13;101317.91;5071534;28;20047;-66
2021/12/23 01:29:29;;;;;;;43.03;19.15;;;;;;;-0.14;68.51;101314.44;5054815;28;20044;-68
2021/12/23 01:31:56;;;;;;;46.47;19.05;;;;;;;-0.09;68.49;101309.00;5072070;28;20417;-68
2021/12/23 01:34:23;;;;;;;47.85;20.17;;;;;;;-0.24;68.61;101295.78;5070090;28;20052;-67
2021/12/23 01:36:49;;;;;;;41.50;19.88;;;;;;;-0.25;68.97;101288.84;5073663;28;20404;-67
2021/12/23 01:39:16;;;;;;;39.38;18.40;;;;;;;-0.32;68.89;101286.59;5071602;28;20486;-67
2021/12/23 01:41:43;;;;;;;44.63;20.15;;;;;;;-0.17;68.69;101303.31;5072041;28;20457;-67
2021/12/23 01:44:10;;;;;;;40.78;19.02;;;;;;;-0.14;68.66;101298.78;5072519;28;20049;-67
2021/12/23 01:46:36;;;;;;;44.83;20.75;;;;;;;-0.10;68.52;101282.06;5055317;28;20481;-67
2021/12/23 01:49:04;;;;;;;49.20;20.42;;;;;;;-0.02;68.31;101266.91;5071629;28;20051;-67
2021/12/23 01:51:31;;;;;;;45.92;20.33;;;;;;;-0.15;67.74;101272.78;5072534;28;20040;-66
2021/12/23 01:53:57;;;;;;;43.15;19.80;;;;;;;0.03;67.86;101277.13;5071526;28;20040;-66
2021/12/23 01:56:25;;;;;;;40.40;19.58;;;;;;;-0.04;68.56;101267.88;5055240;28;20501;-67
2021/12/23 01:58:53;;;;;;;46.42;20.92;;;;;;;-0.03;67.63;101257.38;5071678;28;20044;-67
2021/12/23 02:01:20;;;;;;;40.22;19.20;;;;;;;0.08;68.41;101262.09;5055153;28;20047;-67
2021/12/23 02:03:47;;;;;;;45.58;19.77;;;;;;;-0.13;68.44;101266.56;5069674;28;20049;-67
2021/12/23 02:06:14;;;;;;;46.50;20.75;;;;;;;-0.19;68.99;101279.91;5038217;28;20119;-67
2021/12/23 02:08:42;;;;;;;43.25;19.73;;;;;;;-0.25;69.71;101274.97;5071201;28;20558;-67
2021/12/23 02:11:11;;;;;;;45.30;20.23;;;;;;;-0.35;69.41;101279.75;5055079;28;20110;-67
2021/12/23 02:13:38;;;;;;;41.83;19.48;;;;;;;-0.21;69.65;101264.31;5071462;28;20075;-66
2021/12/23 02:16:06;;;;;;;43.92;20.52;;;;;;;-0.23;69.51;101260.94;5071230;28;20041;-67
2021/12/23 02:18:33;;;;;;;46.70;20.63;;;;;;;-0.21;69.71;101253.06;5071366;28;20393;-67
2021/12/23 02:21:04;;;;;;;43.13;19.40;;;;;;;-0.03;69.03;101249.56;5071122;28;20044;-67
2021/12/23 02:23:31;;;;;;;44.85;20.65;;;;;;;-0.21;69.53;101232.19;5072390;28;20040;-67
2021/12/23 02:25:58;;;;;;;49.63;21.75;;;;;;;-0.26;69.77;101227.19;5071248;28;20106;-67
2021/12/23 02:28:26;;;;;;;46.83;20.90;;;;;;;-0.28;70.08;101215.16;5072309;28;20123;-67
2021/12/23 02:30:53;;;;;;;44.50;20.13;;;;;;;-0.12;70.09;101202.22;5071399;28;20044;-67
2021/12/23 02:33:23;;;;;;;47.05;20.15;;;;;;;-0.06;69.80;101194.09;5072053;28;20044;-67
2021/12/23 02:35:53;;;;;;;46.03;19.95;;;;;;;-0.15;69.10;101207.56;5064758;28;20054;-67
2021/12/23 02:38:20;;;;;;;46.13;20.38;;;;;;;-0.12;70.30;101221.31;5070502;28;20068;-67
2021/12/23 02:40:47;;;;;;;46.03;20.55;;;;;;;-0.01;69.82;101228.63;5072094;28;20421;-67
2021/12/23 02:43:22;;;;;;;48.35;20.30;;;;;;;0.03;69.03;101238.00;5071219;28;20528;-67
2021/12/23 02:45:51;;;;;;;43.20;19.50;;;;;;;-0.07;69.47;101237.59;5050261;28;20053;-67
2021/12/23 02:48:22;;;;;;;44.30;20.02;;;;;;;0.07;69.80;101225.63;5052084;28;20041;-67
2021/12/23 02:50:52;;;;;;;43.05;19.52;;;;;;;0.10;69.44;101217.69;5071174;28;20040;-67
2021/12/23 02:53:20;;;;;;;40.67;17.63;;;;;;;0.13;68.71;101230.59;5077030;28;20100;-67
2021/12/23 02:55:47;;;;;;;44.97;20.92;;;;;;;0.06;69.71;101206.53;5074430;28;20037;-67
2021/12/23 02:58:14;;;;;;;44.85;20.15;;;;;;;0.06;69.60;101198.72;5054362;28;20045;-67
2021/12/23 03:00:44;;;;;;;49.13;21.73;;;;;;;-0.02;70.25;101208.66;5072074;28;20668;-67
2021/12/23 03:03:10;;;;;;;42.63;20.10;;;;;;;0.10;69.88;101199.41;5070662;28;20139;-67
2021/12/23 03:05:37;;;;;;;42.97;21.08;;;;;;;0.09;69.86;101203.78;5070203;28;20075;-67
2021/12/23 03:08:05;;;;;;;45.60;21.20;;;;;;;0.01;69.31;101199.88;5070905;28;20056;-67
2021/12/23 03:10:31;;;;;;;45.90;20.88;;;;;;;0.12;69.10;101202.78;5071952;28;20123;-67
2021/12/23 03:12:58;;;;;;;44.15;19.55;;;;;;;0.10;69.53;101213.28;5070333;28;20131;-67
2021/12/23 03:15:25;;;;;;;39.70;19.35;;;;;;;0.17;69.60;101208.63;5054435;28;20485;-67
2021/12/23 03:17:52;;;;;;;41.92;20.33;;;;;;;0.08;68.90;101209.91;5071948;28;20134;-67
2021/12/23 03:20:18;;;;;;;44.80;20.35;;;;;;;-0.11;70.00;101190.84;5056086;28;20057;-67
2021/12/23 03:22:46;;;;;;;48.97;20.80;;;;;;;-0.06;70.59;101186.25;5069289;28;20090;-68
2021/12/23 03:25:13;;;;;;;42.92;20.13;;;;;;;-0.16;70.24;101198.06;5070478;28;20041;-67
2021/12/23 03:27:40;;;;;;;49.72;22.08;;;;;;;-0.04;70.44;101202.69;5070731;28;20120;-68
2021/12/23 03:30:08;;;;;;;44.13;20.83;;;;;;;-0.19;70.79;101199.06;5054099;28;20048;-67
2021/12/23 03:32:35;;;;;;;43.30;20.50;;;;;;;-0.05;70.29;101193.19;5070963;28;20055;-67
2021/12/23 03:35:02;;;;;;;42.30;20.50;;;;;;;-0.05;70.50;101190.56;5068754;28;20052;-67
2021/12/23 03:37:29;;;;;;;49.42;21.30;;;;;;;0.16;70.06;101184.31;5071625;28;20047;-68
2021/12/23 03:39:55;;;;;;;53.47;22.73;;;;;;;0.18;70.49;101176.38;5062483;28;20044;-67
2021/12/23 03:42:22;;;;;;;45.72;20.65;;;;;;;0.04;70.19;101164.03;5071384;28;20409;-67
2021/12/23 03:44:49;;;;;;;51.58;21.75;;;;;;;0.09;70.83;101166.41;5053700;28;20060;-67
2021/12/23 03:47:16;;;;;;;49.17;21.90;;;;;;;-0.11;70.69;101173.47;5071458;28;20041;-68
2021/12/23 03:49:43;;;;;;;46.90;20.77;;;;;;;0.08;70.96;101183.00;5070464;28;20044;-68
2021/12/23 03:52:10;;;;;;;47.47;20.88;;;;;;;-0.01;71.38;101192.94;5071947;28;20041;-68
2021/12/23 03:54:36;;;;;;;48.92;20.42;;;;;;;0.02;70.84;101180.66;5074785;28;20397;-68
2021/12/23 03:57:04;;;;;;;40.13;18.58;;;;;;;0.16;70.69;101176.47;5054380;28;20049;-67
2021/12/23 03:59:31;;;;;;;44.35;21.10;;;;;;;0.15;70.45;101171.34;5073770;28;20485;-68
2021/12/23 04:01:58;;;;;;;50.15;22.33;;;;;;;0.03;70.97;101166.72;5075105;28;20094;-68
2021/12/23 04:04:25;;;;;;;49.08;20.88;;;;;;;-0.08;70.91;101162.88;5072135;28;20059;-68
2021/12/23 04:06:52;;;;;;;47.63;21.92;;;;;;;-0.16;71.75;101157.19;5073913;28;20098;-67
2021/12/23 04:09:19;;;;;;;49.45;21.70;;;;;;;-0.21;71.50;101135.69;5073393;28;20045;-67
2021/12/23 04:11:46;;;;;;;49.13;20.13;;;;;;;-0.02;70.83;101146.94;5040818;28;20048;-67
2021/12/23 04:14:13;;;;;;;51.42;22.70;;;;;;;-0.32;72.08;101156.25;5056988;28;20508;-67
2021/12/23 04:16:39;;;;;;;46.20;20.55;;;;;;;-0.20;71.77;101137.38;5073781;28;20048;-67
2021/12/23 04:19:09;;;;;;;47.30;22.35;;;;;;;-0.11;72.09;101144.78;5074723;28;20056;-67
2021/12/23 04:21:37;;;;;;;46.92;21.23;;;;;;;-0.06;71.37;101162.78;5073282;28;20072;-67
2021/12/23 04:24:05;;;;;;;46.58;22.15;;;;;;;-0.08;72.09;101160.25;5073641;28;20052;-67
2021/12/23 04:26:33;;;;;;;49.88;21.40;;;;;;;0.00;72.24;101139.03;5056910;28;20059;-67
2021/12/23 04:29:00;;;;;;;50.05;22.48;;;;;;;0.00;71.80;101123.38;5056701;28;20047;-67
2021/12/23 04:31:27;;;;;;;48.90;22.40;;;;;;;0.09;71.37;101130.75;5071330;28;20459;-67
2021/12/23 04:33:54;;;;;;;48.33;21.85;;;;;;;0.02;71.50;101136.31;5073377;28;20051;-67
2021/12/23 04:36:27;;;;;;;44.63;22.25;;;;;;;-0.04;72.28;101116.59;5072961;28;20036;-67
2021/12/23 04:38:58;;;;;;;45.08;20.63;;;;;;;-0.04;72.20;101112.25;5074389;28;20060;-67
2021/12/23 04:41:27;;;;;;;55.80;23.77;;;;;;;-0.01;71.64;101125.13;5056328;28;20436;-67
2021/12/23 04:43:55;;;;;;;54.58;21.25;;;;;;;-0.14;72.35;101113.63;5074207;28;20060;-67
2021/12/23 04:46:21;;;;;;;50.88;23.00;;;;;;;-0.05;72.32;101114.94;5072932;28;20049;-67
2021/12/23 04:48:49;;;;;;;48.45;22.98;;;;;;;-0.06;72.83;101111.47;5073832;28;20521;-67
2021/12/23 04:51:17;;;;;;;48.65;21.63;;;;;;;-0.08;72.50;101107.25;5074145;28;20067;-67
2021/12/23 04:53:44;;;;;;;54.53;22.90;;;;;;;-0.02;73.01;101097.38;5074187;28;20044;-67
2021/12/23 04:56:13;;;;;;;48.70;22.20;;;;;;;-0.01;72.28;101095.59;5057505;28;20051;-67
2021/12/23 04:58:40;;;;;;;53.28;22.85;;;;;;;-0.01;72.49;101092.97;5056641;28;20037;-67
2021/12/23 05:01:16;;;;;;;52.38;21.90;;;;;;;-0.05;72.53;101094.06;5075165;28;20036;-67
2021/12/23 05:03:43;;;;;;;52.80;23.40;;;;;;;0.01;72.53;101090.31;5081090;28;20037;-67
2021/12/23 05:06:10;;;;;;;45.97;22.30;;;;;;;0.11;72.23;101071.50;5078981;28;20444;-66
2021/12/23 05:08:36;;;;;;;49.38;21.85;;;;;;;0.01;72.72;101062.44;5073722;28;20037;-66
2021/12/23 05:11:03;;;;;;;52.50;23.85;;;;;;;-0.04;72.39;101060.09;5072680;28;20093;-66
2021/12/23 05:13:30;;;;;;;53.08;22.38;;;;;;;-0.09;73.10;101046.44;5072728;28;20190;-67
2021/12/23 05:15:56;;;;;;;50.90;23.08;;;;;;;-0.16;73.33;101060.69;5073120;28;20040;-69
2021/12/23 05:18:23;;;;;;;46.25;22.38;;;;;;;-0.06;73.08;101079.31;5073599;28;20098;-69
2021/12/23 05:20:51;;;;;;;45.38;21.65;;;;;;;0.06;72.76;101083.94;5039260;28;20040;-68
2021/12/23 05:23:17;;;;;;;51.60;23.17;;;;;;;-0.05;72.75;101091.47;5068102;28;20040;-69
2021/12/23 05:25:46;;;;;;;48.47;21.90;;;;;;;-0.21;73.32;101075.72;5072233;28;20044;-68
2021/12/23 05:28:13;;;;;;;53.92;23.50;;;;;;;-0.18;73.26;101054.72;5072595;28;20051;-68
2021/12/23 05:30:40;;;;;;;49.33;22.05;;;;;;;-0.07;73.66;101056.78;5071474;28;20052;-68
2021/12/23 05:33:07;;;;;;;60.83;24.13;;;;;;;0.02;72.91;101061.53;5073038;28;20051;-69
2021/12/23 05:35:34;;;;;;;54.45;23.95;;;;;;;0.07;72.49;101071.72;5055922;28;20094;-68
2021/12/23 05:38:01;;;;;;;50.00;23.35;;;;;;;0.06;73.01;101055.22;5071920;28;20040;-69
2021/12/23 05:40:29;;;;;;;50.78;22.95;;;;;;;-0.17;73.72;101035.53;5063857;28;20048;-67
2021/12/23 05:42:57;;;;;;;52.42;23.08;;;;;;;-0.16;73.49;101039.84;5055178;28;20046;-67
2021/12/23 05:45:24;;;;;;;51.13;23.58;;;;;;;-0.14;73.61;101042.38;5071735;28;20052;-67
2021/12/23 05:47:51;;;;;;;47.90;21.30;;;;;;;-0.12;73.55;101028.31;5055340;28;20493;-67
2021/12/23 05:50:20;;;;;;;49.13;22.40;;;;;;;0.15;72.85;101022.63;5071779;28;20040;-68
2021/12/23 05:52:47;;;;;;;51.92;24.50;;;;;;;0.02;72.70;101022.41;5072523;28;20122;-68
2021/12/23 05:55:15;;;;;;;49.63;22.63;;;;;;;0.08;72.50;101023.84;5038348;28;20090;-68
2021/12/23 05:57:42;;;;;;;50.30;24.02;;;;;;;-0.21;73.66;101027.03;5022246;28;20045;-68
2021/12/23 06:00:15;;;;;;;52.00;23.23;;;;;;;0.08;72.95;101023.84;5072863;28;20497;-68
2021/12/23 06:02:42;;;;;;;51.83;22.27;;;;;;;-0.01;72.96;101023.41;5072724;28;20440;-68
2021/12/23 06:05:09;;;;;;;49.05;22.27;;;;;;;0.05;72.75;101005.75;5070548;28;20056;-68
2021/12/23 06:07:36;;;;;;;48.38;22.00;;;;;;;-0.04;72.88;100991.41;5071559;28;20068;-68
2021/12/23 06:10:04;;;;;;;50.88;22.05;;;;;;;0.17;72.11;101005.09;5070751;28;20045;-68
2021/12/23 06:12:30;;;;;;;45.10;21.25;;;;;;;0.24;71.87;101005.59;5072421;28;20051;-68
2021/12/23 06:14:57;;;;;;;51.58;22.80;;;;;;;-0.31;74.16;100994.53;5070912;28;20493;-68
2021/12/23 06:17:24;;;;;;;52.78;22.27;;;;;;;-0.29;74.50;100999.63;5072603;28;20052;-68
2021/12/23 06:19:51;;;;;;;45.92;23.55;;;;;;;-0.20;74.56;101009.59;5071390;28;20497;-68
2021/12/23 06:22:18;;;;;;;56.53;23.92;;;;;;;-0.29;74.46;101016.16;5071029;28;20071;-68
2021/12/23 06:24:47;;;;;;;48.50;23.15;;;;;;;0.09;73.53;101008.13;5071841;28;20041;-68
2021/12/23 06:27:17;;;;;;;47.03;22.52;;;;;;;-0.03;73.62;101001.75;5072520;28;20071;-68
2021/12/23 06:29:44;;;;;;;51.83;21.52;;;;;;;0.15;73.19;100994.75;5070878;28;20064;-68
2021/12/23 06:32:11;;;;;;;53.15;23.23;;;;;;;-0.01;73.55;100984.25;5072506;28;20040;-68
2021/12/23 06:34:39;;;;;;;50.38;21.88;;;;;;;0.14;73.06;100993.03;5052614;28;20044;-68
2021/12/23 06:37:05;;;;;;;56.03;23.83;;;;;;;0.15;73.71;100976.47;5071762;28;20044;-68
2021/12/23 06:39:33;;;;;;;45.53;22.25;;;;;;;0.09;73.02;100979.44;5070849;28;20048;-68
2021/12/23 06:42:02;;;;;;;51.67;24.05;;;;;;;-0.01;73.65;100988.66;5063460;28;20050;-68
2021/12/23 06:44:28;;;;;;;48.22;22.33;;;;;;;0.06;73.47;100984.81;5054172;28;20123;-68
2021/12/23 06:46:55;;;;;;;52.78;22.45;;;;;;;0.04;73.67;100993.59;5063854;28;20549;-68
2021/12/23 06:49:22;;;;;;;48.30;22.30;;;;;;;0.05;73.73;100990.91;5070419;28;20170;-68
2021/12/23 06:51:49;;;;;;;52.10;24.17;;;;;;;-0.04;73.69;100994.00;5053549;28;20089;-68
2021/12/23 06:54:17;;;;;;;51.30;22.88;;;;;;;0.07;73.75;100994.28;5070534;28;20041;-68
2021/12/23 06:56:46;;;;;;;57.50;25.23;;;;;;;0.21;73.67;101011.84;5071555;28;20064;-69
2021/12/23 06:59:15;;;;;;;55.22;24.05;;;;;;;0.29;72.40;100999.25;5054412;28;20490;-68
2021/12/23 07:01:46;;;;;;;49.15;23.05;;;;;;;0.31;73.02;101002.63;5059904;28;20044;-68
2021/12/23 07:04:14;;;;;;;53.95;24.27;;;;;;;0.37;73.06;100991.00;5064083;28;20497;-68
2021/12/23 07:06:47;;;;;;;52.35;23.70;;;;;;;0.19;73.29;100992.81;5071415;28;20040;-67
2021/12/23 07:09:15;;;;;;;48.42;22.45;;;;;;;0.19;73.02;100979.78;5067213;28;20039;-68
2021/12/23 07:11:42;;;;;;;52.50;22.80;;;;;;;0.17;73.00;100992.91;5070775;28;20090;-68
2021/12/23 07:14:08;;;;;;;55.95;23.17;;;;;;;0.41;72.06;100996.91;5070872;28;20051;-68
2021/12/23 07:16:38;;;;;;;52.22;24.65;;;;;;;0.60;72.24;100995.00;5070010;28;20047;-68
2021/12/23 07:19:04;;;;;;;50.25;22.30;;;;;;;0.31;72.16;100978.25;5074501;28;20045;-67
2021/12/23 07:21:31;;;;;;;52.72;24.08;;;;;;;0.33;72.65;100990.31;5077765;28;20453;-68
2021/12/23 07:23:58;;;;;;;46.88;22.35;;;;;;;0.35;72.57;100978.03;5068755;28;20509;-68
2021/12/23 07:26:25;;;;;;;58.63;24.50;;;;;;;0.18;73.36;100960.69;5053821;28;20122;-68
2021/12/23 07:28:53;;;;;;;52.65;23.77;;;;;;;0.46;72.64;100959.19;5073753;28;20071;-68
2021/12/23 07:31:19;;;;;;;57.00;23.58;;;;;;;0.57;72.32;100953.38;5039051;28;20048;-68
2021/12/23 07:33:46;;;;;;;50.33;23.27;;;;;;;0.41;71.75;100963.81;5075406;28;20051;-68
2021/12/23 07:36:17;;;;;;;56.20;24.77;;;;;;;0.37;72.81;100970.13;5075644;28;20041;-68
2021/12/23 07:38:44;;;;;;;55.58;24.70;;;;;;;0.43;72.28;100977.59;5074324;28;20484;-67
2021/12/23 07:41:11;;;;;;;54.92;24.15;;;;;;;0.52;71.39;100986.72;5057530;28;20041;-67
2021/12/23 07:46:07;;;;;;;52.60;23.83;;;;;;;0.31;73.25;100973.91;5083180;28;20463;-68
2021/12/23 07:48:34;;;;;;;51.42;23.73;;;;;;;0.31;72.51;100968.69;5073912;28;20500;-68
2021/12/23 07:51:03;;;;;;;53.47;23.45;;;;;;;0.26;73.14;100973.31;5066260;28;20098;-68
2021/12/23 07:53:30;;;;;;;49.90;22.88;;;;;;;0.40;72.52;100969.97;5074294;28;20123;-68
2021/12/23 07:55:58;;;;;;;54.63;23.88;;;;;;;0.29;72.48;100980.13;5057205;28;20060;-68
2021/12/23 07:58:24;;;;;;;56.63;23.27;;;;;;;0.28;73.30;100965.41;5073691;28;20501;-68
2021/12/23 08:00:51;;;;;;;46.63;21.40;;;;;;;0.40;72.38;100946.47;5057338;28;20090;-68
2021/12/23 08:03:18;;;;;;;52.20;23.02;;;;;;;0.33;72.15;100943.34;5056024;28;20075;-69
2021/12/23 08:05:45;;;;;;;46.75;22.33;;;;;;;0.19;72.85;100951.06;5040168;28;20049;-67
2021/12/23 08:08:11;;;;;;;54.58;23.55;;;;;;;0.25;73.46;100969.00;5073647;28;20444;-67
2021/12/23 08:10:38;;;;;;;49.13;22.35;;;;;;;0.33;72.56;100966.00;5074963;28;20045;-67
2021/12/23 08:13:07;;;;;;;49.72;22.67;;;;;;;0.57;71.97;100955.97;5074421;28;20128;-68
2021/12/23 08:15:34;;;;;;;57.08;24.25;;;;;;;0.42;72.49;100951.59;5073563;28;20378;-68
2021/12/23 08:18:00;;;;;;;50.28;22.17;;;;;;;0.42;71.87;100955.06;5074776;28;20471;-68
2021/12/23 08:20:28;;;;;;;46.33;22.55;;;;;;;0.33;73.09;100955.56;5073604;28;20379;-67
2021/12/23 08:22:55;;;;;;;53.10;22.27;;;;;;;0.36;72.91;100948.41;5064115;28;20057;-68
2021/12/23 08:25:23;;;;;;;50.33;23.88;;;;;;;0.48;72.08;100961.72;5023934;28;20053;-68
2021/12/23 08:27:50;;;;;;;48.17;21.85;;;;;;;0.69;71.32;100960.53;5056845;28;21208;-68
2021/12/23 08:30:20;;;;;;;48.10;21.20;;;;;;;0.63;71.91;100962.63;5069562;28;20511;-67
2021/12/23 08:32:48;;;;;;;54.00;24.70;;;;;;;0.64;71.86;100967.78;5072662;28;20040;-67
2021/12/23 08:35:16;;;;;;;52.55;21.63;;;;;;;0.64;71.70;100957.34;5073435;28;20036;-67
2021/12/23 08:37:46;;;;;;;48.42;22.35;;;;;;;0.61;72.27;100964.50;5072020;28;20123;-68
2021/12/23 08:40:16;;;;;;;50.20;23.98;;;;;;;0.69;71.59;100955.31;5055370;28;20040;-67
2021/12/23 08:42:43;;;;;;;53.13;23.52;;;;;;;0.91;70.84;100952.34;5071864;28;20044;-68
2021/12/23 08:45:10;;;;;;;51.53;23.95;;;;;;;0.84;71.53;100945.78;5052268;28;20052;-67
2021/12/23 08:47:37;;;;;;;48.28;22.70;;;;;;;0.82;71.95;100945.03;5050226;28;20118;-67
2021/12/23 08:50:07;;;;;;;50.03;23.15;;;;;;;0.95;71.38;100943.38;5074740;28;20102;-68
2021/12/23 08:52:35;;;;;;;56.80;24.50;;;;;;;0.94;71.66;100943.47;5048131;28;20044;-68
2021/12/23 08:55:04;;;;;;;52.67;23.92;;;;;;;0.94;71.05;100946.91;5054769;28;20048;-68
2021/12/23 08:57:31;;;;;;;46.88;22.35;;;;;;;0.93;70.97;100941.81;5052144;28;20047;-68
2021/12/23 08:59:58;;;;;;;46.38;22.30;;;;;;;0.76;71.28;100938.38;5071936;28;20045;-68
2021/12/23 09:02:25;;;;;;;47.30;22.60;;;;;;;0.99;71.00;100951.06;5052765;28;20091;-68
2021/12/23 09:05:08;;;;;;;47.63;22.45;;;;;;;0.93;70.59;100937.41;5054173;28;20101;-68
2021/12/23 09:07:35;;;;;;;48.83;22.40;;;;;;;0.90;70.60;100941.97;5071943;28;20167;-68
2021/12/23 09:10:04;;;;;;;52.70;22.17;;;;;;;0.95;71.19;100943.38;5067979;28;20044;-68
2021/12/23 09:12:32;;;;;;;50.67;23.13;;;;;;;1.09;70.25;100945.22;5070142;28;20044;-68
2021/12/23 09:14:59;;;;;;;55.25;23.08;;;;;;;1.01;70.74;100952.66;5059508;28;20040;-68
2021/12/23 09:17:26;;;;;;;50.28;22.73;;;;;;;1.06;70.31;100945.41;5070578;28;20037;-68
2021/12/23 09:19:52;;;;;;;55.83;24.85;;;;;;;1.07;70.25;100948.84;5069900;28;20575;-68
2021/12/23 09:22:19;;;;;;;55.75;23.50;;;;;;;1.15;70.47;100942.25;5063251;28;20131;-68
2021/12/23 09:24:47;;;;;;;50.40;22.73;;;;;;;1.31;70.02;100949.19;5033382;28;20052;-66
2021/12/23 09:32:52;;;;;;;54.92;22.88;;;;;;;1.47;69.47;100915.97;5070619;28;20056;-66
2021/12/23 09:35:23;;;;;;;47.40;23.25;;;;;;;1.50;68.42;100921.03;5053195;28;20394;-68
2021/12/23 09:37:51;;;;;;;47.08;22.20;;;;;;;1.68;68.92;100910.44;5071992;28;20396;-67
2021/12/23 09:40:19;;;;;;;47.45;22.52;;;;;;;1.70;68.34;100916.41;5070872;28;20043;-67
2021/12/23 09:42:47;;;;;;;59.38;23.23;;;;;;;1.71;68.12;100911.09;5068681;28;20048;-67
2021/12/23 09:45:17;;;;;;;54.10;23.48;;;;;;;1.78;67.81;100901.06;5070974;28;20067;-67
2021/12/23 09:47:47;;;;;;;51.40;23.05;;;;;;;1.61;68.86;100902.09;5031938;28;20049;-68
2021/12/23 09:50:24;;;;;;;48.72;22.15;;;;;;;1.73;68.21;100900.53;5070507;28;20040;-67
2021/12/23 09:52:52;;;;;;;54.33;22.50;;;;;;;1.75;68.42;100901.28;5066770;28;21514;-67
2021/12/23 09:55:23;;;;;;;48.88;22.17;;;;;;;1.99;67.14;100904.16;5070115;28;20075;-67
2021/12/23 09:57:53;;;;;;;50.83;23.88;;;;;;;1.97;68.01;100905.19;5047321;28;20048;-67
2021/12/23 10:00:23;;;;;;;50.90;23.35;;;;;;;2.03;67.19;100905.63;5070928;28;20066;-67
2021/12/23 10:02:51;;;;;;;48.50;23.35;;;;;;;2.20;66.18;100902.00;5070217;28;20048;-67
2021/12/23 10:05:21;;;;;;;55.55;24.13;;;;;;;2.21;66.51;100895.81;5070319;28;20032;-67
2021/12/23 10:07:49;;;;;;;56.72;22.20;;;;;;;2.27;65.96;100898.06;5068485;28;20044;-67
2021/12/23 10:10:24;;;;;;;47.55;22.27;;;;;;;2.15;66.16;100888.34;5052015;28;20037;-67
2021/12/23 10:38:34;;;;;;;49.67;22.90;;;;;;;2.64;64.75;100830.22;5082913;28;20040;-68
2021/12/23 10:41:24;;;;;;;52.20;22.13;;;;;;;2.59;63.23;100829.66;5079438;28;20094;-67
2021/12/23 10:43:57;;;;;;;55.00;23.13;;;;;;;2.58;64.64;100825.34;5077116;28;20472;-67
2021/12/23 10:46:30;;;;;;;47.85;22.05;;;;;;;2.77;64.02;100830.25;5053293;28;20038;-67
2021/12/23 10:51:58;;;;;;;48.38;22.27;;;;;;;2.79;63.63;100807.41;5063699;28;20504;-65
2021/12/23 10:58:12;;;;;;;50.78;22.42;;;;;;;2.72;63.74;100790.41;5067612;28;20048;-65
2021/12/23 11:00:29;;;;;;;48.65;21.80;;;;;;;2.66;63.58;100790.81;5083081;28;20135;-65
2021/12/23 11:03:07;;;;;;;52.55;21.65;;;;;;;2.59;63.28;100779.06;5083887;28;20045;-65
2021/12/23 11:05:39;;;;;;;47.95;22.33;;;;;;;2.81;62.72;100771.44;5080106;28;20085;-65
2021/12/23 11:08:32;;;;;;;54.22;21.55;;;;;;;2.86;62.66;100776.41;5084909;28;20062;-65
2021/12/23 11:11:28;;;;;;;46.72;22.15;;;;;;;3.00;62.68;100775.44;5088348;28;20119;-65
2021/12/23 11:39:33;;;;;;;48.22;21.33;;;;;;;2.57;63.67;100747.75;5080478;28;20051;-65
2021/12/23 11:42:05;;;;;;;46.63;21.33;;;;;;;2.78;63.55;100734.97;5084794;28;20048;-64
2021/12/23 11:44:32;;;;;;;;;;;;;;;2.94;63.53;100716.44;5083378;28;20064;-64
2021/12/23 11:47:06;;;;;;;50.08;20.50;;;;;;;3.02;63.20;100713.28;5074220;28;19951;-64
2021/12/23 11:49:35;;;;;;;48.13;21.17;;;;;;;3.18;62.85;100724.38;5073601;28;20044;-64
2021/12/23 11:52:02;;;;;;;48.70;20.88;;;;;;;3.05;62.90;100723.56;5071561;28;20044;-64
2021/12/23 11:54:31;;;;;;;50.67;22.70;;;;;;;3.16;62.89;100717.56;5071380;28;20037;-64
2021/12/23 12:00:15;;;;;;;54.35;22.33;;;;;;;3.14;62.66;100704.56;5054835;28;20403;-65
2021/12/23 12:02:43;;;;;;;47.75;22.45;;;;;;;3.11;63.35;100701.31;5044793;28;20041;-65
2021/12/23 12:05:16;;;;;;;56.58;22.75;;;;;;;3.11;63.21;100698.69;5043760;28;20059;-63
2021/12/23 12:07:44;;;;;;;53.78;23.30;;;;;;;3.12;63.31;100695.13;5030278;28;20034;-63
2021/12/23 12:10:18;;;;;;;47.25;22.23;;;;;;;3.27;63.34;100688.81;5029945;28;20087;-63
2021/12/23 12:13:04;;;;;;;50.75;23.23;;;;;;;3.21;63.10;100684.00;5030120;28;20049;-64
2021/12/23 12:15:42;;;;;;;50.40;22.10;;;;;;;3.28;63.31;100687.88;5052651;28;20063;-63
2021/12/23 12:18:13;;;;;;;51.75;21.73;;;;;;;3.21;63.43;100674.34;5048356;28;20417;-64
2021/12/23 12:20:45;;;;;;;55.92;22.75;;;;;;;3.33;63.13;100674.44;5031115;28;20049;-63
2021/12/23 12:23:30;;;;;;;54.05;22.77;;;;;;;3.12;63.82;100661.06;5035141;28;20189;-64
2021/12/23 12:26:02;;;;;;;53.72;22.30;;;;;;;3.10;63.66;100661.16;5024340;28;20033;-64
2021/12/23 12:28:35;;;;;;;48.75;21.73;;;;;;;3.10;63.37;100655.09;5032105;28;20039;-63
2021/12/23 12:31:08;;;;;;;54.38;22.58;;;;;;;3.28;63.56;100647.72;5053234;28;20045;-64
2021/12/23 12:33:38;;;;;;;54.42;23.48;;;;;;;3.40;63.63;100652.06;5018269;28;20158;-64